sensor_id;sensor_type;location;lat;lon;timestamp;temperature;humidity
16198;DHT22;8206;51.440;6.914;2023-11-22T00:02:12;5.70;99.90
16198;DHT22;8206;51.440;6.914;2023-11-22T00:04:39;5.50;99.90
16198;DHT22;8206;51.440;6.914;2023-11-22T00:07:07;5.50;99.90
16198;DHT22;8206;51.440;6.914;2023-11-22T00:09:33;5.40;99.90
16198;DHT22;8206;51.440;6.914;2023-11-22T00:12:00;5.30;99.90
16198;DHT22;8206;51.440;6.914;2023-11-22T00:14:28;5.30;99.90
16198;DHT22;8206;51.440;6.914;2023-11-22T00:16:54;5.20;99.90
16198;DHT22;8206;51.440;6.914;2023-11-22T00:19:21;5.20;99.90
16198;DHT22;8206;51.440;6.914;2023-11-22T00:21:48;5.20;99.90
16198;DHT22;8206;51.440;6.914;2023-11-22T00:24:16;5.10;99.90
16198;DHT22;8206;51.440;6.914;2023-11-22T00:26:44;5.10;99.90
16198;DHT22;8206;51.440;6.914;2023-11-22T00:29:11;5.00;99.90
16198;DHT22;8206;51.440;6.914;2023-11-22T00:31:37;5.00;99.90
16198;DHT22;8206;51.440;6.914;2023-11-22T00:34:04;5.10;99.90
16198;DHT22;8206;51.440;6.914;2023-11-22T00:36:32;5.00;99.90
16198;DHT22;8206;51.440;6.914;2023-11-22T00:38:59;5.00;99.90
16198;DHT22;8206;51.440;6.914;2023-11-22T00:41:31;4.90;99.90
16198;DHT22;8206;51.440;6.914;2023-11-22T00:43:58;4.80;99.90
16198;DHT22;8206;51.440;6.914;2023-11-22T00:46:24;4.70;99.90
16198;DHT22;8206;51.440;6.914;2023-11-22T00:48:51;4.70;99.90
16198;DHT22;8206;51.440;6.914;2023-11-22T00:51:17;4.60;99.90
16198;DHT22;8206;51.440;6.914;2023-11-22T00:53:45;4.60;99.90
16198;DHT22;8206;51.440;6.914;2023-11-22T00:56:11;4.50;99.90
16198;DHT22;8206;51.440;6.914;2023-11-22T00:58:39;4.50;99.90
16198;DHT22;8206;51.440;6.914;2023-11-22T01:01:06;4.50;99.90
16198;DHT22;8206;51.440;6.914;2023-11-22T01:03:33;4.50;99.90
16198;DHT22;8206;51.440;6.914;2023-11-22T01:06:00;4.50;99.90
16198;DHT22;8206;51.440;6.914;2023-11-22T01:08:27;4.40;99.90
16198;DHT22;8206;51.440;6.914;2023-11-22T01:10:54;4.40;99.90
16198;DHT22;8206;51.440;6.914;2023-11-22T01:13:22;4.50;99.90
16198;DHT22;8206;51.440;6.914;2023-11-22T01:15:51;4.50;99.90
16198;DHT22;8206;51.440;6.914;2023-11-22T01:18:17;4.40;99.90
16198;DHT22;8206;51.440;6.914;2023-11-22T01:20:44;4.40;99.90
16198;DHT22;8206;51.440;6.914;2023-11-22T01:23:11;4.40;99.90
16198;DHT22;8206;51.440;6.914;2023-11-22T01:25:38;4.40;99.90
16198;DHT22;8206;51.440;6.914;2023-11-22T01:28:05;4.20;99.90
16198;DHT22;8206;51.440;6.914;2023-11-22T01:30:32;4.20;99.90
16198;DHT22;8206;51.440;6.914;2023-11-22T01:33:00;4.10;99.90
16198;DHT22;8206;51.440;6.914;2023-11-22T01:35:27;4.10;99.90
16198;DHT22;8206;51.440;6.914;2023-11-22T01:37:54;4.20;99.90
16198;DHT22;8206;51.440;6.914;2023-11-22T01:40:21;4.30;99.90
16198;DHT22;8206;51.440;6.914;2023-11-22T01:42:49;4.40;99.90
16198;DHT22;8206;51.440;6.914;2023-11-22T01:45:15;4.50;99.90
16198;DHT22;8206;51.440;6.914;2023-11-22T01:47:44;4.50;99.90
16198;DHT22;8206;51.440;6.914;2023-11-22T01:50:12;4.60;99.90
16198;DHT22;8206;51.440;6.914;2023-11-22T01:52:40;4.60;99.90
16198;DHT22;8206;51.440;6.914;2023-11-22T01:55:08;4.70;99.90
16198;DHT22;8206;51.440;6.914;2023-11-22T01:57:36;4.70;99.90
16198;DHT22;8206;51.440;6.914;2023-11-22T02:00:03;4.70;99.90
16198;DHT22;8206;51.440;6.914;2023-11-22T02:02:33;4.70;99.90
16198;DHT22;8206;51.440;6.914;2023-11-22T02:05:00;4.80;99.90
16198;DHT22;8206;51.440;6.914;2023-11-22T02:07:28;4.80;99.90
16198;DHT22;8206;51.440;6.914;2023-11-22T02:09:57;4.80;99.90
16198;DHT22;8206;51.440;6.914;2023-11-22T02:12:24;4.80;99.90
16198;DHT22;8206;51.440;6.914;2023-11-22T02:14:51;4.90;99.90
16198;DHT22;8206;51.440;6.914;2023-11-22T02:17:17;4.80;99.90
16198;DHT22;8206;51.440;6.914;2023-11-22T02:19:44;4.80;99.90
16198;DHT22;8206;51.440;6.914;2023-11-22T02:22:11;4.80;99.90
16198;DHT22;8206;51.440;6.914;2023-11-22T02:24:39;4.80;99.90
16198;DHT22;8206;51.440;6.914;2023-11-22T02:27:05;4.80;99.90
16198;DHT22;8206;51.440;6.914;2023-11-22T02:29:32;4.80;99.90
16198;DHT22;8206;51.440;6.914;2023-11-22T02:31:59;4.70;99.90
16198;DHT22;8206;51.440;6.914;2023-11-22T02:34:26;4.70;99.90
16198;DHT22;8206;51.440;6.914;2023-11-22T02:36:52;4.70;99.90
16198;DHT22;8206;51.440;6.914;2023-11-22T02:39:19;4.60;99.90
16198;DHT22;8206;51.440;6.914;2023-11-22T02:41:48;4.60;99.90
16198;DHT22;8206;51.440;6.914;2023-11-22T02:44:15;4.50;99.90
16198;DHT22;8206;51.440;6.914;2023-11-22T02:46:42;4.50;99.90
16198;DHT22;8206;51.440;6.914;2023-11-22T02:49:09;4.50;99.90
16198;DHT22;8206;51.440;6.914;2023-11-22T02:51:36;4.60;99.90
16198;DHT22;8206;51.440;6.914;2023-11-22T02:54:03;4.60;99.90
16198;DHT22;8206;51.440;6.914;2023-11-22T02:56:30;4.70;99.90
16198;DHT22;8206;51.440;6.914;2023-11-22T02:58:58;4.70;99.90
16198;DHT22;8206;51.440;6.914;2023-11-22T03:01:24;4.60;99.90
16198;DHT22;8206;51.440;6.914;2023-11-22T03:03:51;4.60;99.90
16198;DHT22;8206;51.440;6.914;2023-11-22T03:06:18;4.50;99.90
16198;DHT22;8206;51.440;6.914;2023-11-22T03:08:44;4.50;99.90
16198;DHT22;8206;51.440;6.914;2023-11-22T03:11:12;4.50;99.90
16198;DHT22;8206;51.440;6.914;2023-11-22T03:13:47;4.60;99.90
16198;DHT22;8206;51.440;6.914;2023-11-22T03:16:16;4.70;99.90
16198;DHT22;8206;51.440;6.914;2023-11-22T03:18:44;4.70;99.90
16198;DHT22;8206;51.440;6.914;2023-11-22T03:21:11;4.70;99.90
16198;DHT22;8206;51.440;6.914;2023-11-22T03:23:38;4.80;99.90
16198;DHT22;8206;51.440;6.914;2023-11-22T03:26:05;4.80;99.90
16198;DHT22;8206;51.440;6.914;2023-11-22T03:28:32;4.80;99.90
16198;DHT22;8206;51.440;6.914;2023-11-22T03:30:59;4.80;99.90
16198;DHT22;8206;51.440;6.914;2023-11-22T03:33:28;4.80;99.90
16198;DHT22;8206;51.440;6.914;2023-11-22T03:35:55;4.90;99.90
16198;DHT22;8206;51.440;6.914;2023-11-22T03:38:23;4.90;99.90
16198;DHT22;8206;51.440;6.914;2023-11-22T03:40:50;4.80;99.90
16198;DHT22;8206;51.440;6.914;2023-11-22T03:43:17;4.70;99.90
16198;DHT22;8206;51.440;6.914;2023-11-22T03:45:44;4.60;99.90
16198;DHT22;8206;51.440;6.914;2023-11-22T03:48:10;4.40;99.90
16198;DHT22;8206;51.440;6.914;2023-11-22T03:50:38;4.20;99.90
16198;DHT22;8206;51.440;6.914;2023-11-22T03:53:05;4.20;99.90
16198;DHT22;8206;51.440;6.914;2023-11-22T03:55:32;4.10;99.90
16198;DHT22;8206;51.440;6.914;2023-11-22T03:57:59;4.00;99.90
16198;DHT22;8206;51.440;6.914;2023-11-22T04:00:26;3.90;99.90
16198;DHT22;8206;51.440;6.914;2023-11-22T04:02:53;3.80;99.90
16198;DHT22;8206;51.440;6.914;2023-11-22T04:05:22;3.70;99.90
16198;DHT22;8206;51.440;6.914;2023-11-22T04:07:50;3.70;99.90
16198;DHT22;8206;51.440;6.914;2023-11-22T04:10:17;3.50;99.90
16198;DHT22;8206;51.440;6.914;2023-11-22T04:12:44;3.50;99.90
16198;DHT22;8206;51.440;6.914;2023-11-22T04:15:11;3.50;99.90
16198;DHT22;8206;51.440;6.914;2023-11-22T04:17:38;3.40;99.90
16198;DHT22;8206;51.440;6.914;2023-11-22T04:20:05;3.40;99.90
16198;DHT22;8206;51.440;6.914;2023-11-22T04:22:34;3.40;99.90
16198;DHT22;8206;51.440;6.914;2023-11-22T04:25:03;3.30;99.90
16198;DHT22;8206;51.440;6.914;2023-11-22T04:27:30;3.30;99.90
16198;DHT22;8206;51.440;6.914;2023-11-22T04:29:56;3.30;99.90
16198;DHT22;8206;51.440;6.914;2023-11-22T04:32:23;3.30;99.90
16198;DHT22;8206;51.440;6.914;2023-11-22T04:34:50;3.30;99.90
16198;DHT22;8206;51.440;6.914;2023-11-22T04:37:16;3.20;99.90
16198;DHT22;8206;51.440;6.914;2023-11-22T04:39:43;3.20;99.90
16198;DHT22;8206;51.440;6.914;2023-11-22T04:42:11;3.20;99.90
16198;DHT22;8206;51.440;6.914;2023-11-22T04:44:38;3.20;99.90
16198;DHT22;8206;51.440;6.914;2023-11-22T04:47:05;3.10;99.90
16198;DHT22;8206;51.440;6.914;2023-11-22T04:49:32;3.10;99.90
16198;DHT22;8206;51.440;6.914;2023-11-22T04:51:58;3.10;99.90
16198;DHT22;8206;51.440;6.914;2023-11-22T04:54:25;3.10;99.90
16198;DHT22;8206;51.440;6.914;2023-11-22T04:56:52;3.00;99.90
16198;DHT22;8206;51.440;6.914;2023-11-22T04:59:20;3.00;99.90
16198;DHT22;8206;51.440;6.914;2023-11-22T05:01:47;2.90;99.90
16198;DHT22;8206;51.440;6.914;2023-11-22T05:04:14;3.00;99.90
16198;DHT22;8206;51.440;6.914;2023-11-22T05:06:41;2.90;99.90
16198;DHT22;8206;51.440;6.914;2023-11-22T05:09:09;2.90;99.90
16198;DHT22;8206;51.440;6.914;2023-11-22T05:11:36;2.90;99.90
16198;DHT22;8206;51.440;6.914;2023-11-22T05:14:03;3.00;99.90
16198;DHT22;8206;51.440;6.914;2023-11-22T05:16:30;2.90;99.90
16198;DHT22;8206;51.440;6.914;2023-11-22T05:18:56;2.90;99.90
16198;DHT22;8206;51.440;6.914;2023-11-22T05:21:23;2.90;99.90
16198;DHT22;8206;51.440;6.914;2023-11-22T05:23:50;2.90;99.90
16198;DHT22;8206;51.440;6.914;2023-11-22T05:26:17;2.80;99.90
16198;DHT22;8206;51.440;6.914;2023-11-22T05:28:44;2.80;99.90
16198;DHT22;8206;51.440;6.914;2023-11-22T05:31:12;2.80;99.90
16198;DHT22;8206;51.440;6.914;2023-11-22T05:33:40;2.80;99.90
16198;DHT22;8206;51.440;6.914;2023-11-22T05:36:08;2.80;99.90
16198;DHT22;8206;51.440;6.914;2023-11-22T05:38:37;2.80;99.90
16198;DHT22;8206;51.440;6.914;2023-11-22T05:41:03;2.70;99.90
16198;DHT22;8206;51.440;6.914;2023-11-22T05:43:30;2.70;99.90
16198;DHT22;8206;51.440;6.914;2023-11-22T05:45:57;2.70;99.90
16198;DHT22;8206;51.440;6.914;2023-11-22T05:48:23;2.60;99.90
16198;DHT22;8206;51.440;6.914;2023-11-22T05:50:51;2.50;99.90
16198;DHT22;8206;51.440;6.914;2023-11-22T05:53:18;2.50;99.90
16198;DHT22;8206;51.440;6.914;2023-11-22T05:55:46;2.40;99.90
16198;DHT22;8206;51.440;6.914;2023-11-22T05:58:14;2.30;99.90
16198;DHT22;8206;51.440;6.914;2023-11-22T06:00:42;2.30;99.90
16198;DHT22;8206;51.440;6.914;2023-11-22T06:03:08;2.20;99.90
16198;DHT22;8206;51.440;6.914;2023-11-22T06:05:35;2.20;99.90
16198;DHT22;8206;51.440;6.914;2023-11-22T06:08:03;2.20;99.90
16198;DHT22;8206;51.440;6.914;2023-11-22T06:10:30;2.20;99.90
16198;DHT22;8206;51.440;6.914;2023-11-22T06:12:57;2.10;99.90
16198;DHT22;8206;51.440;6.914;2023-11-22T06:15:24;2.00;99.90
16198;DHT22;8206;51.440;6.914;2023-11-22T06:17:50;1.90;99.90
16198;DHT22;8206;51.440;6.914;2023-11-22T06:20:18;1.90;99.90
16198;DHT22;8206;51.440;6.914;2023-11-22T06:22:46;1.90;99.90
16198;DHT22;8206;51.440;6.914;2023-11-22T06:25:15;1.80;99.90
16198;DHT22;8206;51.440;6.914;2023-11-22T06:27:42;1.80;99.90
16198;DHT22;8206;51.440;6.914;2023-11-22T06:30:09;1.70;99.90
16198;DHT22;8206;51.440;6.914;2023-11-22T06:32:35;1.70;99.90
16198;DHT22;8206;51.440;6.914;2023-11-22T06:35:02;1.70;99.90
16198;DHT22;8206;51.440;6.914;2023-11-22T06:37:30;1.70;99.90
16198;DHT22;8206;51.440;6.914;2023-11-22T06:39:56;1.60;99.90
16198;DHT22;8206;51.440;6.914;2023-11-22T06:42:25;1.60;99.90
16198;DHT22;8206;51.440;6.914;2023-11-22T06:44:51;1.60;99.90
16198;DHT22;8206;51.440;6.914;2023-11-22T06:47:18;1.60;99.90
16198;DHT22;8206;51.440;6.914;2023-11-22T06:49:45;1.60;99.90
16198;DHT22;8206;51.440;6.914;2023-11-22T06:52:12;1.60;99.90
16198;DHT22;8206;51.440;6.914;2023-11-22T06:54:39;1.60;99.90
16198;DHT22;8206;51.440;6.914;2023-11-22T06:57:05;1.60;99.90
16198;DHT22;8206;51.440;6.914;2023-11-22T06:59:34;1.50;99.90
16198;DHT22;8206;51.440;6.914;2023-11-22T07:02:01;1.50;99.90
16198;DHT22;8206;51.440;6.914;2023-11-22T07:04:27;1.50;99.90
16198;DHT22;8206;51.440;6.914;2023-11-22T07:06:54;1.50;99.90
16198;DHT22;8206;51.440;6.914;2023-11-22T07:09:22;1.50;99.90
16198;DHT22;8206;51.440;6.914;2023-11-22T07:11:48;1.50;99.90
16198;DHT22;8206;51.440;6.914;2023-11-22T07:14:15;1.50;99.90
16198;DHT22;8206;51.440;6.914;2023-11-22T07:16:43;1.50;99.90
16198;DHT22;8206;51.440;6.914;2023-11-22T07:19:10;1.50;99.90
16198;DHT22;8206;51.440;6.914;2023-11-22T07:21:38;1.50;99.90
16198;DHT22;8206;51.440;6.914;2023-11-22T07:24:06;1.50;99.90
16198;DHT22;8206;51.440;6.914;2023-11-22T07:26:34;1.50;99.90
16198;DHT22;8206;51.440;6.914;2023-11-22T07:29:01;1.50;99.90
16198;DHT22;8206;51.440;6.914;2023-11-22T07:31:27;1.50;99.90
16198;DHT22;8206;51.440;6.914;2023-11-22T07:33:56;1.60;99.90
16198;DHT22;8206;51.440;6.914;2023-11-22T07:36:22;1.60;99.90
16198;DHT22;8206;51.440;6.914;2023-11-22T07:38:50;1.70;99.90
16198;DHT22;8206;51.440;6.914;2023-11-22T07:41:19;1.70;99.90
16198;DHT22;8206;51.440;6.914;2023-11-22T07:43:46;1.80;99.90
16198;DHT22;8206;51.440;6.914;2023-11-22T07:46:13;1.90;99.90
16198;DHT22;8206;51.440;6.914;2023-11-22T07:48:41;1.90;99.90
16198;DHT22;8206;51.440;6.914;2023-11-22T07:51:09;2.00;99.90
16198;DHT22;8206;51.440;6.914;2023-11-22T07:53:36;2.00;99.90
16198;DHT22;8206;51.440;6.914;2023-11-22T07:56:05;2.00;99.90
16198;DHT22;8206;51.440;6.914;2023-11-22T07:58:32;2.00;99.90
16198;DHT22;8206;51.440;6.914;2023-11-22T08:00:59;2.10;99.90
16198;DHT22;8206;51.440;6.914;2023-11-22T08:03:30;2.10;99.90
16198;DHT22;8206;51.440;6.914;2023-11-22T08:05:57;2.10;99.90
16198;DHT22;8206;51.440;6.914;2023-11-22T08:08:25;2.20;99.90
16198;DHT22;8206;51.440;6.914;2023-11-22T08:10:52;2.30;99.90
16198;DHT22;8206;51.440;6.914;2023-11-22T08:13:19;2.40;99.90
16198;DHT22;8206;51.440;6.914;2023-11-22T08:15:48;2.50;99.90
16198;DHT22;8206;51.440;6.914;2023-11-22T08:18:15;2.50;99.90
16198;DHT22;8206;51.440;6.914;2023-11-22T08:20:41;2.60;99.90
16198;DHT22;8206;51.440;6.914;2023-11-22T08:23:08;2.60;99.90
16198;DHT22;8206;51.440;6.914;2023-11-22T08:25:37;2.60;99.90
16198;DHT22;8206;51.440;6.914;2023-11-22T08:28:03;2.70;99.90
16198;DHT22;8206;51.440;6.914;2023-11-22T08:30:33;2.70;99.90
16198;DHT22;8206;51.440;6.914;2023-11-22T08:33:01;2.70;99.90
16198;DHT22;8206;51.440;6.914;2023-11-22T08:35:28;2.80;99.90
16198;DHT22;8206;51.440;6.914;2023-11-22T08:37:54;2.80;99.90
16198;DHT22;8206;51.440;6.914;2023-11-22T08:40:23;2.90;99.90
16198;DHT22;8206;51.440;6.914;2023-11-22T08:42:52;2.90;99.90
16198;DHT22;8206;51.440;6.914;2023-11-22T08:45:19;3.00;99.90
16198;DHT22;8206;51.440;6.914;2023-11-22T08:47:46;3.10;99.90
16198;DHT22;8206;51.440;6.914;2023-11-22T08:50:13;3.10;99.90
16198;DHT22;8206;51.440;6.914;2023-11-22T08:52:41;3.20;99.90
16198;DHT22;8206;51.440;6.914;2023-11-22T08:55:08;3.20;99.90
16198;DHT22;8206;51.440;6.914;2023-11-22T08:57:35;3.30;99.90
16198;DHT22;8206;51.440;6.914;2023-11-22T09:00:05;3.40;99.90
16198;DHT22;8206;51.440;6.914;2023-11-22T09:02:34;3.50;99.90
16198;DHT22;8206;51.440;6.914;2023-11-22T09:05:01;3.60;99.90
16198;DHT22;8206;51.440;6.914;2023-11-22T09:07:30;3.70;99.90
16198;DHT22;8206;51.440;6.914;2023-11-22T09:09:57;3.80;99.90
16198;DHT22;8206;51.440;6.914;2023-11-22T09:12:25;3.90;99.90
16198;DHT22;8206;51.440;6.914;2023-11-22T09:14:52;4.00;99.90
16198;DHT22;8206;51.440;6.914;2023-11-22T09:17:21;4.20;99.90
16198;DHT22;8206;51.440;6.914;2023-11-22T09:19:48;4.30;99.90
16198;DHT22;8206;51.440;6.914;2023-11-22T09:22:15;4.50;99.90
16198;DHT22;8206;51.440;6.914;2023-11-22T09:24:43;4.60;99.90
16198;DHT22;8206;51.440;6.914;2023-11-22T09:27:10;4.60;99.90
16198;DHT22;8206;51.440;6.914;2023-11-22T09:29:40;4.60;99.90
16198;DHT22;8206;51.440;6.914;2023-11-22T09:32:07;4.80;99.90
16198;DHT22;8206;51.440;6.914;2023-11-22T09:34:37;4.90;99.90
16198;DHT22;8206;51.440;6.914;2023-11-22T09:37:04;4.90;99.90
16198;DHT22;8206;51.440;6.914;2023-11-22T09:39:30;5.00;99.90
16198;DHT22;8206;51.440;6.914;2023-11-22T09:41:57;5.10;99.90
16198;DHT22;8206;51.440;6.914;2023-11-22T09:44:25;5.10;99.90
16198;DHT22;8206;51.440;6.914;2023-11-22T09:46:52;5.20;1.00
16198;DHT22;8206;51.440;6.914;2023-11-22T09:49:20;5.30;1.00
16198;DHT22;8206;51.440;6.914;2023-11-22T09:51:54;5.40;1.00
16198;DHT22;8206;51.440;6.914;2023-11-22T09:54:23;5.40;1.00
16198;DHT22;8206;51.440;6.914;2023-11-22T09:56:56;5.50;1.00
16198;DHT22;8206;51.440;6.914;2023-11-22T09:59:25;5.70;1.00
16198;DHT22;8206;51.440;6.914;2023-11-22T10:01:53;5.80;1.00
16198;DHT22;8206;51.440;6.914;2023-11-22T10:04:19;5.80;1.00
16198;DHT22;8206;51.440;6.914;2023-11-22T10:06:46;5.80;1.00
16198;DHT22;8206;51.440;6.914;2023-11-22T10:09:15;5.70;1.00
16198;DHT22;8206;51.440;6.914;2023-11-22T10:11:42;5.80;1.00
16198;DHT22;8206;51.440;6.914;2023-11-22T10:14:10;5.70;1.00
16198;DHT22;8206;51.440;6.914;2023-11-22T10:16:37;5.80;99.90
16198;DHT22;8206;51.440;6.914;2023-11-22T10:19:04;5.90;1.00
16198;DHT22;8206;51.440;6.914;2023-11-22T10:21:31;5.90;72.30
16198;DHT22;8206;51.440;6.914;2023-11-22T10:24:01;6.00;1.00
16198;DHT22;8206;51.440;6.914;2023-11-22T10:26:29;6.00;99.90
16198;DHT22;8206;51.440;6.914;2023-11-22T10:28:57;6.10;99.90
16198;DHT22;8206;51.440;6.914;2023-11-22T10:31:24;6.10;99.90
16198;DHT22;8206;51.440;6.914;2023-11-22T10:33:51;6.20;99.90
16198;DHT22;8206;51.440;6.914;2023-11-22T10:36:18;6.20;99.90
16198;DHT22;8206;51.440;6.914;2023-11-22T10:38:46;6.30;99.90
16198;DHT22;8206;51.440;6.914;2023-11-22T10:41:13;6.30;99.90
16198;DHT22;8206;51.440;6.914;2023-11-22T10:43:41;6.30;1.00
16198;DHT22;8206;51.440;6.914;2023-11-22T10:46:08;6.20;30.30
16198;DHT22;8206;51.440;6.914;2023-11-22T10:48:35;6.20;99.90
16198;DHT22;8206;51.440;6.914;2023-11-22T10:51:04;6.30;99.90
16198;DHT22;8206;51.440;6.914;2023-11-22T10:53:32;6.40;49.90
16198;DHT22;8206;51.440;6.914;2023-11-22T10:56:07;6.40;99.90
16198;DHT22;8206;51.440;6.914;2023-11-22T10:58:44;6.50;99.90
16198;DHT22;8206;51.440;6.914;2023-11-22T11:01:14;6.70;1.00
16198;DHT22;8206;51.440;6.914;2023-11-22T11:03:46;6.70;99.90
16198;DHT22;8206;51.440;6.914;2023-11-22T11:06:20;6.70;99.90
16198;DHT22;8206;51.440;6.914;2023-11-22T11:08:49;6.70;99.90
16198;DHT22;8206;51.440;6.914;2023-11-22T11:11:17;6.80;99.90
16198;DHT22;8206;51.440;6.914;2023-11-22T11:13:46;6.80;99.90
16198;DHT22;8206;51.440;6.914;2023-11-22T11:16:13;6.80;99.90
16198;DHT22;8206;51.440;6.914;2023-11-22T11:18:41;6.90;99.90
16198;DHT22;8206;51.440;6.914;2023-11-22T11:21:09;7.00;99.90
16198;DHT22;8206;51.440;6.914;2023-11-22T11:23:39;7.10;99.90
16198;DHT22;8206;51.440;6.914;2023-11-22T11:26:14;7.20;99.90
16198;DHT22;8206;51.440;6.914;2023-11-22T11:28:45;7.10;99.90
16198;DHT22;8206;51.440;6.914;2023-11-22T11:31:13;7.20;99.90
16198;DHT22;8206;51.440;6.914;2023-11-22T11:33:54;7.30;99.90
16198;DHT22;8206;51.440;6.914;2023-11-22T11:36:23;7.30;1.00
16198;DHT22;8206;51.440;6.914;2023-11-22T11:38:51;7.40;60.50
16198;DHT22;8206;51.440;6.914;2023-11-22T11:41:18;7.40;99.90
16198;DHT22;8206;51.440;6.914;2023-11-22T11:43:48;7.50;99.90
16198;DHT22;8206;51.440;6.914;2023-11-22T11:46:16;7.60;99.90
16198;DHT22;8206;51.440;6.914;2023-11-22T11:48:43;7.60;99.90
16198;DHT22;8206;51.440;6.914;2023-11-22T11:51:13;7.60;99.90
16198;DHT22;8206;51.440;6.914;2023-11-22T11:53:40;7.60;99.90
16198;DHT22;8206;51.440;6.914;2023-11-22T11:56:07;7.50;99.90
16198;DHT22;8206;51.440;6.914;2023-11-22T11:58:34;7.60;99.90
16198;DHT22;8206;51.440;6.914;2023-11-22T12:01:02;7.50;1.00
16198;DHT22;8206;51.440;6.914;2023-11-22T12:03:29;7.40;99.90
16198;DHT22;8206;51.440;6.914;2023-11-22T12:05:56;7.30;1.00
16198;DHT22;8206;51.440;6.914;2023-11-22T12:08:23;7.10;1.00
16198;DHT22;8206;51.440;6.914;2023-11-22T12:10:50;6.90;99.90
16198;DHT22;8206;51.440;6.914;2023-11-22T12:13:18;6.60;99.90
16198;DHT22;8206;51.440;6.914;2023-11-22T12:15:46;6.40;1.00
16198;DHT22;8206;51.440;6.914;2023-11-22T12:18:14;6.10;99.90
16198;DHT22;8206;51.440;6.914;2023-11-22T12:20:42;5.90;1.00
16198;DHT22;8206;51.440;6.914;2023-11-22T12:23:09;5.80;99.90
16198;DHT22;8206;51.440;6.914;2023-11-22T12:25:37;5.80;99.90
16198;DHT22;8206;51.440;6.914;2023-11-22T12:28:04;5.70;99.90
16198;DHT22;8206;51.440;6.914;2023-11-22T12:30:31;5.70;12.90
16198;DHT22;8206;51.440;6.914;2023-11-22T12:33:01;5.70;1.00
16198;DHT22;8206;51.440;6.914;2023-11-22T12:35:31;5.60;1.00
16198;DHT22;8206;51.440;6.914;2023-11-22T12:37:59;5.60;1.00
16198;DHT22;8206;51.440;6.914;2023-11-22T12:40:27;5.60;1.00
16198;DHT22;8206;51.440;6.914;2023-11-22T12:42:57;5.60;99.90
16198;DHT22;8206;51.440;6.914;2023-11-22T12:45:25;5.60;99.90
16198;DHT22;8206;51.440;6.914;2023-11-22T12:47:53;5.70;99.90
16198;DHT22;8206;51.440;6.914;2023-11-22T12:50:31;5.70;1.00
16198;DHT22;8206;51.440;6.914;2023-11-22T12:52:59;5.70;1.00
16198;DHT22;8206;51.440;6.914;2023-11-22T12:55:33;5.80;99.90
16198;DHT22;8206;51.440;6.914;2023-11-22T12:58:00;5.80;1.00
16198;DHT22;8206;51.440;6.914;2023-11-22T13:00:29;5.80;83.10
16198;DHT22;8206;51.440;6.914;2023-11-22T13:02:56;5.80;99.90
16198;DHT22;8206;51.440;6.914;2023-11-22T13:05:23;5.80;1.00
16198;DHT22;8206;51.440;6.914;2023-11-22T13:07:51;5.80;1.00
16198;DHT22;8206;51.440;6.914;2023-11-22T13:10:19;5.90;80.50
16198;DHT22;8206;51.440;6.914;2023-11-22T13:12:51;5.90;99.90
16198;DHT22;8206;51.440;6.914;2023-11-22T13:15:18;6.00;1.00
16198;DHT22;8206;51.440;6.914;2023-11-22T13:17:46;6.10;1.00
16198;DHT22;8206;51.440;6.914;2023-11-22T13:20:12;6.10;1.00
16198;DHT22;8206;51.440;6.914;2023-11-22T13:22:41;6.20;29.90
16198;DHT22;8206;51.440;6.914;2023-11-22T13:25:09;6.30;99.90
16198;DHT22;8206;51.440;6.914;2023-11-22T13:27:38;6.30;1.00
16198;DHT22;8206;51.440;6.914;2023-11-22T13:30:06;6.30;1.00
16198;DHT22;8206;51.440;6.914;2023-11-22T13:32:33;6.40;99.90
16198;DHT22;8206;51.440;6.914;2023-11-22T13:35:01;6.40;99.90
16198;DHT22;8206;51.440;6.914;2023-11-22T13:37:30;6.40;99.90
16198;DHT22;8206;51.440;6.914;2023-11-22T13:39:57;6.50;1.00
16198;DHT22;8206;51.440;6.914;2023-11-22T13:42:25;6.50;99.90
16198;DHT22;8206;51.440;6.914;2023-11-22T13:44:52;6.50;99.90
16198;DHT22;8206;51.440;6.914;2023-11-22T13:47:18;6.50;1.00
16198;DHT22;8206;51.440;6.914;2023-11-22T13:49:45;6.50;99.90
16198;DHT22;8206;51.440;6.914;2023-11-22T13:52:12;6.40;99.90
16198;DHT22;8206;51.440;6.914;2023-11-22T13:54:39;6.50;99.90
16198;DHT22;8206;51.440;6.914;2023-11-22T13:57:05;6.50;1.00
16198;DHT22;8206;51.440;6.914;2023-11-22T13:59:33;6.50;99.90
16198;DHT22;8206;51.440;6.914;2023-11-22T14:02:00;6.50;1.00
16198;DHT22;8206;51.440;6.914;2023-11-22T14:04:27;6.60;99.90
16198;DHT22;8206;51.440;6.914;2023-11-22T14:06:54;6.60;99.90
16198;DHT22;8206;51.440;6.914;2023-11-22T14:09:20;6.50;99.90
16198;DHT22;8206;51.440;6.914;2023-11-22T14:11:47;6.50;99.90
16198;DHT22;8206;51.440;6.914;2023-11-22T14:14:14;6.50;99.90
16198;DHT22;8206;51.440;6.914;2023-11-22T14:16:43;6.50;1.00
16198;DHT22;8206;51.440;6.914;2023-11-22T14:19:11;6.40;1.00
16198;DHT22;8206;51.440;6.914;2023-11-22T14:21:38;6.40;1.00
16198;DHT22;8206;51.440;6.914;2023-11-22T14:24:06;6.40;99.90
16198;DHT22;8206;51.440;6.914;2023-11-22T14:26:33;6.40;99.90
16198;DHT22;8206;51.440;6.914;2023-11-22T14:29:01;6.40;99.90
16198;DHT22;8206;51.440;6.914;2023-11-22T14:31:28;6.30;99.90
16198;DHT22;8206;51.440;6.914;2023-11-22T14:33:56;6.20;99.90
16198;DHT22;8206;51.440;6.914;2023-11-22T14:36:23;6.30;99.90
16198;DHT22;8206;51.440;6.914;2023-11-22T14:38:49;6.20;99.90
16198;DHT22;8206;51.440;6.914;2023-11-22T14:41:19;6.20;99.90
16198;DHT22;8206;51.440;6.914;2023-11-22T14:43:46;6.10;1.00
16198;DHT22;8206;51.440;6.914;2023-11-22T14:46:13;6.20;1.00
16198;DHT22;8206;51.440;6.914;2023-11-22T14:48:41;6.10;1.00
16198;DHT22;8206;51.440;6.914;2023-11-22T14:51:09;6.10;99.90
16198;DHT22;8206;51.440;6.914;2023-11-22T14:53:35;6.10;99.90
16198;DHT22;8206;51.440;6.914;2023-11-22T14:56:05;6.20;99.90
16198;DHT22;8206;51.440;6.914;2023-11-22T14:58:32;6.10;99.90
16198;DHT22;8206;51.440;6.914;2023-11-22T15:01:00;6.10;99.90
16198;DHT22;8206;51.440;6.914;2023-11-22T15:03:26;6.10;99.90
16198;DHT22;8206;51.440;6.914;2023-11-22T15:05:54;6.00;99.30
16198;DHT22;8206;51.440;6.914;2023-11-22T15:08:24;6.00;99.90
16198;DHT22;8206;51.440;6.914;2023-11-22T15:10:53;6.00;99.90
16198;DHT22;8206;51.440;6.914;2023-11-22T15:13:20;5.90;1.00
16198;DHT22;8206;51.440;6.914;2023-11-22T15:15:47;5.90;1.00
16198;DHT22;8206;51.440;6.914;2023-11-22T15:18:16;5.90;1.00
16198;DHT22;8206;51.440;6.914;2023-11-22T15:20:42;5.90;1.00
16198;DHT22;8206;51.440;6.914;2023-11-22T15:23:09;5.90;1.00
16198;DHT22;8206;51.440;6.914;2023-11-22T15:25:37;5.90;1.00
16198;DHT22;8206;51.440;6.914;2023-11-22T15:28:04;5.80;1.00
16198;DHT22;8206;51.440;6.914;2023-11-22T15:30:31;5.80;1.00
16198;DHT22;8206;51.440;6.914;2023-11-22T15:32:58;5.80;99.90
16198;DHT22;8206;51.440;6.914;2023-11-22T15:35:25;5.80;91.50
16198;DHT22;8206;51.440;6.914;2023-11-22T15:37:52;5.80;99.90
16198;DHT22;8206;51.440;6.914;2023-11-22T15:40:18;5.80;1.00
16198;DHT22;8206;51.440;6.914;2023-11-22T15:42:47;5.70;1.00
16198;DHT22;8206;51.440;6.914;2023-11-22T15:45:15;5.70;99.90
16198;DHT22;8206;51.440;6.914;2023-11-22T15:47:41;5.70;21.00
16198;DHT22;8206;51.440;6.914;2023-11-22T15:50:10;5.70;1.00
16198;DHT22;8206;51.440;6.914;2023-11-22T15:52:36;5.70;99.90
16198;DHT22;8206;51.440;6.914;2023-11-22T15:55:04;5.70;1.00
16198;DHT22;8206;51.440;6.914;2023-11-22T15:57:32;5.70;99.90
16198;DHT22;8206;51.440;6.914;2023-11-22T16:00:00;5.70;99.90
16198;DHT22;8206;51.440;6.914;2023-11-22T16:02:29;5.70;1.00
16198;DHT22;8206;51.440;6.914;2023-11-22T16:04:56;5.70;1.00
16198;DHT22;8206;51.440;6.914;2023-11-22T16:07:23;5.70;1.00